MiSS Sarah — WDE9595 — position and weather

sailwx.info

Track history (hours):
 
Tides and Currents Weather Stations Pressure Air Temp Water Temp Dewpoint Dewpoint Depression Visibility Wind Speed Wind Dir Waves Ship Positions

MiSS Sarah

Owner: Higman Barge Lines, Inc, Orange, TX. More information available from US FCC via Universal Licensing System and Coast Guard Vessel Documentation Center.

Last reported at 2016-Apr-05 14:11 UTC. Time now 2016-Apr-29 15:56 UTC.
Position N 28°45' W 095°43'.
Warning: this ship's position is 24 days out of date.

Length 24 m; draft 9 m.

Type: Towing. MMSI: 367419040.

Date/timePositionNaut miles runAvg speedWind from/ knotsBaromVisibWave heightAir tempDewpointWater temp
2016-Apr-05 14:11N 28°45' W 095°43'3 4.2
2016-Apr-05 13:31N 28°46' W 095°40'4 4.3
2016-Apr-05 12:32N 28°47' W 095°36'6 6.1
2016-Apr-05 11:33N 28°51' W 095°30'6 5.6
2016-Apr-05 10:33N 28°53' W 095°25'2 1.6
2016-Apr-05 09:33N 28°54' W 095°23'1 0.9
2016-Apr-05 08:33N 28°54' W 095°24'2 1.7
2016-Apr-05 07:32N 28°54' W 095°22'1 0.7
2016-Apr-05 06:33N 28°55' W 095°22'0 0.2
2016-Apr-05 05:31N 28°55' W 095°21'3 2.4
2016-Apr-05 04:28N 28°56' W 095°19'5 6.0
2016-Apr-05 03:33N 29°00' W 095°15'6 6.4
2016-Apr-05 02:33N 29°06' W 095°12'6 6.1
2016-Apr-05 01:33N 29°10' W 095°07'22 0.6
2016-Apr-03 14:28N 29°23' W 094°46'5 5.5
2016-Apr-03 13:33N 29°23' W 094°52'3 0.2
2016-Apr-03 00:33N 29°22' W 094°55'0 0.0
2016-Apr-02 23:30N 29°22' W 094°55'0 0.0
2016-Apr-02 22:33N 29°22' W 094°55'0 0.0
2016-Apr-02 21:08N 29°22' W 094°55'0 0.0
2016-Apr-02 20:25N 29°22' W 094°55'0 0.0
2016-Apr-02 19:18N 29°22' W 094°55'0 0.0
2016-Apr-02 18:32N 29°22' W 094°55'0 0.0
2016-Apr-02 15:34N 29°22' W 094°55'0 0.0
2016-Apr-02 14:33N 29°22' W 094°55'0 0.0
2016-Apr-02 13:33N 29°22' W 094°55'0 0.0
2016-Apr-02 12:33N 29°22' W 094°55'0 0.0
2016-Apr-02 11:22N 29°22' W 094°55'6 0.2
2016-Mar-31 21:20N 29°22' W 094°48'4 4.7
2016-Mar-31 20:31N 29°23' W 094°53'  
2016-Mar-26 19:22N 29°24' W 094°45'0 0.0
2016-Mar-26 18:23N 29°24' W 094°45'0 0.0
2016-Mar-26 17:25N 29°24' W 094°45'0 0.1
2016-Mar-26 16:13N 29°24' W 094°45'0 0.0
2016-Mar-26 15:33N 29°24' W 094°45'  
Track history (hours):
 
Tides and Currents Weather Stations Pressure Air Temp Water Temp Dewpoint Dewpoint Depression Visibility Wind Speed Wind Dir Waves Ship Positions

MiSS Sarah

Owner: Higman Barge Lines, Inc, Orange, TX. More information available from US FCC via Universal Licensing System and Coast Guard Vessel Documentation Center.

Last reported at 2016-Apr-05 14:11 UTC. Time now 2016-Apr-29 15:56 UTC.
Position N 28°45' W 095°43'.
Warning: this ship's position is 24 days out of date.

Length 24 m; draft 9 m.

Type: Towing. MMSI: 367419040.

Date/timePositionNaut miles runAvg speedWind from/ knotsBaromVisibWave heightAir tempDewpointWater temp
2016-Apr-05 14:11N 28°45' W 095°43'3 4.2
2016-Apr-05 13:31N 28°46' W 095°40'4 4.3
2016-Apr-05 12:32N 28°47' W 095°36'6 6.1
2016-Apr-05 11:33N 28°51' W 095°30'6 5.6
2016-Apr-05 10:33N 28°53' W 095°25'2 1.6
2016-Apr-05 09:33N 28°54' W 095°23'1 0.9
2016-Apr-05 08:33N 28°54' W 095°24'2 1.7
2016-Apr-05 07:32N 28°54' W 095°22'1 0.7
2016-Apr-05 06:33N 28°55' W 095°22'0 0.2
2016-Apr-05 05:31N 28°55' W 095°21'3 2.4
2016-Apr-05 04:28N 28°56' W 095°19'5 6.0
2016-Apr-05 03:33N 29°00' W 095°15'6 6.4
2016-Apr-05 02:33N 29°06' W 095°12'6 6.1
2016-Apr-05 01:33N 29°10' W 095°07'22 0.6
2016-Apr-03 14:28N 29°23' W 094°46'5 5.5
2016-Apr-03 13:33N 29°23' W 094°52'3 0.2
2016-Apr-03 00:33N 29°22' W 094°55'0 0.0
2016-Apr-02 23:30N 29°22' W 094°55'0 0.0
2016-Apr-02 22:33N 29°22' W 094°55'0 0.0
2016-Apr-02 21:08N 29°22' W 094°55'0 0.0
2016-Apr-02 20:25N 29°22' W 094°55'0 0.0
2016-Apr-02 19:18N 29°22' W 094°55'0 0.0
2016-Apr-02 18:32N 29°22' W 094°55'0 0.0
2016-Apr-02 15:34N 29°22' W 094°55'0 0.0
2016-Apr-02 14:33N 29°22' W 094°55'0 0.0
2016-Apr-02 13:33N 29°22' W 094°55'0 0.0
2016-Apr-02 12:33N 29°22' W 094°55'0 0.0
2016-Apr-02 11:22N 29°22' W 094°55'6 0.2
2016-Mar-31 21:20N 29°22' W 094°48'4 4.7
2016-Mar-31 20:31N 29°23' W 094°53'  
2016-Mar-26 19:22N 29°24' W 094°45'0 0.0
2016-Mar-26 18:23N 29°24' W 094°45'0 0.0
2016-Mar-26 17:25N 29°24' W 094°45'0 0.1
2016-Mar-26 16:13N 29°24' W 094°45'0 0.0
2016-Mar-26 15:33N 29°24' W 094°45'  

Dump ship's entire track history